createdAt,value
2019-03-11T04:26:57.085Z,6.40
2019-03-11T04:29:39.191Z,6.30
2019-03-11T04:32:21.179Z,6.30
2019-03-11T04:35:02.872Z,6.20
2019-03-11T04:37:44.890Z,6.10
2019-03-11T04:40:26.778Z,6.00
2019-03-11T04:43:08.446Z,5.90
2019-03-11T04:45:50.557Z,5.90
2019-03-11T04:48:32.542Z,5.80
2019-03-11T04:51:14.526Z,5.80
2019-03-11T04:53:56.597Z,5.80
2019-03-11T04:56:38.557Z,5.70
2019-03-11T04:59:20.762Z,5.70
2019-03-11T05:02:02.607Z,5.60
2019-03-11T05:04:44.404Z,5.50
2019-03-11T05:07:26.459Z,5.50
2019-03-11T05:10:08.626Z,5.40
2019-03-11T05:12:50.122Z,5.40
2019-03-11T05:15:32.265Z,5.30
2019-03-11T05:18:14.394Z,5.40
2019-03-11T05:20:55.077Z,5.30
2019-03-11T05:23:37.140Z,5.40
2019-03-11T05:26:19.240Z,5.40
2019-03-11T05:29:01.314Z,5.40
2019-03-11T05:31:43.075Z,5.30
2019-03-11T05:34:25.047Z,5.40
2019-03-11T05:37:06.943Z,5.40
2019-03-11T05:39:48.884Z,5.50
2019-03-11T05:42:30.998Z,5.60
2019-03-11T05:45:14.202Z,5.50
2019-03-11T05:47:44.524Z,5.60
2019-03-11T05:50:33.854Z,5.50
2019-03-11T05:53:17.233Z,5.60
2019-03-11T05:55:59.496Z,5.60
2019-03-11T05:58:41.668Z,5.30
2019-03-11T06:01:23.925Z,5.30
2019-03-11T06:04:06.124Z,5.40
2019-03-11T06:06:48.699Z,5.30
2019-03-11T06:09:30.333Z,5.40
2019-03-11T06:12:12.388Z,5.30
2019-03-11T06:14:54.408Z,5.40
2019-03-11T06:17:36.578Z,5.30
2019-03-11T06:20:37.497Z,5.30
2019-03-11T06:23:19.488Z,5.40
2019-03-11T06:26:00.078Z,5.10
2019-03-11T06:28:42.222Z,5.20
2019-03-11T06:31:25.236Z,5.00
2019-03-11T06:33:55.510Z,5.00
2019-03-11T06:36:37.350Z,5.10
2019-03-11T06:39:20.392Z,5.00
2019-03-11T06:42:02.293Z,4.90
2019-03-11T06:44:44.461Z,4.80
2019-03-11T06:47:26.243Z,4.90
2019-03-11T06:50:09.199Z,5.00
2019-03-11T06:52:50.900Z,5.10
2019-03-11T06:55:32.841Z,5.10
2019-03-11T06:58:14.711Z,5.10
2019-03-11T07:00:56.885Z,5.10
2019-03-11T07:03:39.250Z,5.10
2019-03-11T07:06:21.176Z,5.30
2019-03-11T07:09:03.603Z,5.40
2019-03-11T07:11:46.762Z,5.30
2019-03-11T07:14:28.869Z,5.40
2019-03-11T07:16:59.165Z,5.50
2019-03-11T07:19:41.578Z,5.50
2019-03-11T07:22:24.033Z,5.50
2019-03-11T07:25:05.844Z,5.60
2019-03-11T07:27:47.566Z,5.60
2019-03-11T07:30:29.383Z,5.60
2019-03-11T07:33:11.209Z,5.80
2019-03-11T07:35:53.096Z,5.80
2019-03-11T07:38:35.017Z,5.80
2019-03-11T07:41:18.126Z,5.70
2019-03-11T07:44:00.326Z,5.80
2019-03-11T07:46:42.464Z,5.80
2019-03-11T07:49:24.548Z,5.80
2019-03-11T07:52:06.831Z,5.80
2019-03-11T07:54:48.721Z,5.90
2019-03-11T07:57:30.483Z,5.90
2019-03-11T08:00:12.467Z,6.00
2019-03-11T08:02:54.178Z,6.00
2019-03-11T08:05:36.394Z,6.00
2019-03-11T08:08:18.597Z,6.10
2019-03-11T08:11:00.768Z,6.10
2019-03-11T08:13:42.985Z,6.00
2019-03-11T08:16:25.009Z,6.00
2019-03-11T08:19:06.701Z,6.10
2019-03-11T08:21:48.801Z,6.10
2019-03-11T08:24:30.865Z,6.30
2019-03-11T08:27:13.138Z,6.30
2019-03-11T08:29:55.053Z,6.40
2019-03-11T08:32:36.916Z,6.60
2019-03-11T08:35:18.926Z,6.70
2019-03-11T08:38:05.055Z,6.60
2019-03-11T08:40:44.874Z,6.70
2019-03-11T08:43:27.106Z,6.80
2019-03-11T08:46:09.045Z,6.90
2019-03-11T08:48:51.336Z,6.90
2019-03-11T08:51:33.677Z,6.70
2019-03-11T08:54:16.010Z,6.60
2019-03-11T08:56:58.073Z,6.60
2019-03-11T08:59:40.456Z,6.60
2019-03-11T09:02:22.796Z,6.60
2019-03-11T09:05:05.194Z,6.70
2019-03-11T09:07:47.034Z,6.80
2019-03-11T09:10:30.845Z,6.90
2019-03-11T09:13:14.361Z,6.70
2019-03-11T09:15:56.959Z,6.50
2019-03-11T09:18:38.727Z,5.60
2019-03-11T09:21:21.225Z,5.40
2019-03-11T09:24:03.296Z,5.30
2019-03-11T09:26:45.510Z,5.30
2019-03-11T09:29:27.723Z,5.20
2019-03-11T09:32:10.267Z,5.10
2019-03-11T09:34:53.204Z,5.20
2019-03-11T09:37:35.687Z,5.40
2019-03-11T09:40:18.027Z,5.70
2019-03-11T09:43:00.121Z,6.10
2019-03-11T09:45:42.366Z,6.20
2019-03-11T09:48:24.156Z,6.10
2019-03-11T09:51:08.537Z,6.20
2019-03-11T09:53:51.299Z,6.30
2019-03-11T09:56:42.985Z,6.20
2019-03-11T09:59:16.933Z,6.40
2019-03-11T10:01:59.651Z,6.60
2019-03-11T10:04:41.560Z,6.70
2019-03-11T10:07:23.165Z,6.90
2019-03-11T10:09:55.433Z,6.70
2019-03-11T10:12:37.846Z,6.80
2019-03-11T10:15:20.234Z,6.80
2019-03-11T10:18:02.782Z,6.90
2019-03-11T10:20:45.968Z,6.80
2019-03-11T10:23:32.004Z,6.90
2019-03-11T10:26:11.809Z,6.80
2019-03-11T10:28:53.371Z,6.60
2019-03-11T10:31:37.099Z,6.40
2019-03-11T10:34:19.663Z,6.30
2019-03-11T10:36:50.308Z,6.30
2019-03-11T10:39:39.980Z,6.40
2019-03-11T10:42:23.016Z,6.30
2019-03-11T10:45:08.145Z,6.30
2019-03-11T10:47:51.336Z,6.40
2019-03-11T10:50:33.890Z,6.50
2019-03-11T10:53:17.757Z,6.50
2019-03-11T10:56:00.716Z,6.70
2019-03-11T10:58:46.074Z,6.60
2019-03-11T11:01:28.393Z,6.70
2019-03-11T11:04:09.001Z,6.70
2019-03-11T11:06:50.626Z,6.90
2019-03-11T11:09:32.771Z,7.00
2019-03-11T11:12:15.073Z,7.00
2019-03-11T11:14:56.950Z,7.00
2019-03-11T11:17:39.043Z,7.10
2019-03-11T11:20:21.089Z,7.00
2019-03-11T11:23:03.218Z,7.00
2019-03-11T11:25:45.543Z,7.10
2019-03-11T11:28:27.638Z,7.00
2019-03-11T11:31:09.926Z,6.90
2019-03-11T11:33:53.053Z,7.00
2019-03-11T11:36:33.490Z,6.90
2019-03-11T11:39:15.892Z,6.90
2019-03-11T11:41:57.956Z,6.70
2019-03-11T11:44:40.122Z,6.90
2019-03-11T11:47:22.186Z,7.10
2019-03-11T11:50:04.491Z,7.30
2019-03-11T11:52:46.676Z,7.20
2019-03-11T11:55:28.789Z,7.20
2019-03-11T11:58:11.118Z,7.30
2019-03-11T12:00:53.297Z,7.20
2019-03-11T12:03:35.438Z,7.00
2019-03-11T12:06:17.609Z,7.10
2019-03-11T12:08:59.583Z,7.20
2019-03-11T12:11:41.763Z,7.20
2019-03-11T12:14:23.629Z,7.30
2019-03-11T12:17:05.854Z,7.30
2019-03-11T12:19:47.758Z,7.30
2019-03-11T12:22:31.326Z,7.20
2019-03-11T12:25:13.987Z,7.30
2019-03-11T12:27:58.072Z,7.30
2019-03-11T12:30:39.556Z,7.40
2019-03-11T12:33:21.607Z,7.40
2019-03-11T12:36:03.934Z,7.60
2019-03-11T12:38:45.918Z,7.60
2019-03-11T12:41:28.403Z,8.00
2019-03-11T12:44:11.246Z,7.80
2019-03-11T12:46:53.111Z,7.80
2019-03-11T12:49:35.343Z,7.90
2019-03-11T12:52:17.538Z,8.10
2019-03-11T12:54:59.419Z,7.90
2019-03-11T12:57:42.671Z,7.80
2019-03-11T13:00:24.946Z,7.80
2019-03-11T13:03:08.206Z,7.90
2019-03-11T13:05:49.958Z,8.00
2019-03-11T13:08:32.153Z,7.90
2019-03-11T13:11:14.395Z,7.70
2019-03-11T13:13:56.399Z,7.80
2019-03-11T13:16:38.734Z,7.60
2019-03-11T13:19:20.934Z,7.60
2019-03-11T13:21:51.248Z,7.30
2019-03-11T13:24:40.655Z,7.40
2019-03-11T13:27:22.643Z,7.50
2019-03-11T13:30:04.741Z,7.70
2019-03-11T13:32:47.738Z,7.90
2019-03-11T13:35:29.676Z,8.10
2019-03-11T13:38:11.845Z,8.30
2019-03-11T13:40:53.706Z,8.40
2019-03-11T13:43:35.810Z,8.60
2019-03-11T13:46:17.855Z,8.60
2019-03-11T13:48:48.282Z,8.70
2019-03-11T13:51:37.592Z,8.40
2019-03-11T13:54:19.952Z,8.40
2019-03-11T13:57:02.447Z,8.50
2019-03-11T13:59:44.829Z,8.60
2019-03-11T14:02:26.571Z,8.70
2019-03-11T14:05:09.477Z,8.90
2019-03-11T14:07:51.703Z,9.00
2019-03-11T14:10:34.242Z,9.20
2019-03-11T14:13:16.346Z,9.30
2019-03-11T14:15:58.725Z,9.50
2019-03-11T14:18:40.827Z,9.50
2019-03-11T14:21:26.024Z,10.20
2019-03-11T14:24:06.639Z,11.30
2019-03-11T14:26:48.501Z,13.50
2019-03-11T14:29:31.242Z,15.20
2019-03-11T14:32:14.513Z,14.30
2019-03-11T14:34:56.966Z,14.70
2019-03-11T14:37:27.539Z,16.10
2019-03-11T14:40:09.964Z,16.10
2019-03-11T14:42:52.037Z,16.60
2019-03-11T14:45:34.110Z,16.40
2019-03-11T14:48:16.137Z,14.10
2019-03-11T14:50:58.061Z,13.80
2019-03-11T14:53:40.407Z,13.90
2019-03-11T14:56:23.070Z,13.00
2019-03-11T14:59:04.981Z,13.70
2019-03-11T15:01:48.322Z,14.20
2019-03-11T15:04:30.333Z,14.40
2019-03-11T15:07:12.839Z,14.50
2019-03-11T15:13:04.899Z,14.50
2019-03-11T15:15:46.936Z,14.30
2019-03-11T15:18:28.891Z,14.30
2019-03-11T15:21:09.606Z,14.80
2019-03-11T15:23:51.809Z,13.00
2019-03-11T15:26:34.179Z,11.50
2019-03-11T15:29:15.853Z,10.50
2019-03-11T15:31:59.317Z,9.90
2019-03-11T15:34:41.990Z,9.70
2019-03-11T15:37:26.755Z,9.50
2019-03-11T15:40:14.638Z,9.40
2019-03-11T15:42:58.478Z,9.40
2019-03-11T15:45:41.119Z,9.30
2019-03-11T15:48:24.031Z,9.50
2019-03-11T15:51:07.039Z,9.30
2019-03-11T15:53:49.647Z,9.30
2019-03-11T15:56:32.334Z,9.20
2019-03-11T15:59:18.429Z,9.20
2019-03-11T16:02:00.601Z,9.20
2019-03-11T16:04:48.592Z,9.20
2019-03-11T16:07:31.175Z,9.00
2019-03-11T16:10:17.028Z,9.10
2019-03-11T16:12:59.371Z,9.00
2019-03-11T16:15:44.314Z,9.00
2019-03-11T16:18:17.191Z,8.90
2019-03-11T16:21:06.580Z,8.70
2019-03-11T16:23:49.607Z,8.70
2019-03-11T16:26:31.565Z,8.60
2019-03-11T16:29:13.839Z,8.40
2019-03-11T16:31:56.448Z,8.50
2019-03-11T16:34:38.580Z,8.40
2019-03-11T16:37:20.928Z,8.40
2019-03-11T16:40:03.061Z,8.40
2019-03-11T16:42:45.657Z,8.40
2019-03-11T16:45:27.834Z,8.30
2019-03-11T16:47:58.981Z,8.30
2019-03-11T16:50:41.687Z,8.20
2019-03-11T16:53:23.945Z,8.20
2019-03-11T16:56:08.425Z,8.00
2019-03-11T16:58:51.601Z,7.90
2019-03-11T17:01:34.184Z,7.90
2019-03-11T17:04:16.547Z,7.80
2019-03-11T17:06:58.951Z,7.80
2019-03-11T17:09:42.550Z,7.60
2019-03-11T17:12:25.535Z,7.60
2019-03-11T17:15:07.920Z,7.60
2019-03-11T17:17:50.014Z,7.50
2019-03-11T17:20:34.835Z,7.40
2019-03-11T17:23:19.865Z,7.50
2019-03-11T17:26:02.225Z,7.50
2019-03-11T17:28:45.282Z,7.60
2019-03-11T17:31:27.385Z,7.50
2019-03-11T17:34:09.789Z,7.40
2019-03-11T17:36:53.889Z,7.40
2019-03-11T17:39:36.126Z,7.40
2019-03-11T17:42:18.222Z,7.40
2019-03-11T17:44:59.896Z,7.40
2019-03-11T17:47:44.463Z,7.40
2019-03-11T17:50:29.370Z,7.30
2019-03-11T17:53:19.601Z,7.20
2019-03-11T17:55:56.252Z,7.30
2019-03-11T17:58:38.827Z,7.30
2019-03-11T18:04:21.141Z,7.20
2019-03-11T18:07:03.556Z,7.10
2019-03-11T18:09:45.558Z,7.20
2019-03-11T18:15:26.455Z,7.30
2019-03-11T18:17:56.732Z,7.10
2019-03-11T18:20:46.078Z,7.10
2019-03-11T18:23:27.744Z,7.00
2019-03-11T18:26:11.994Z,7.00
2019-03-11T18:28:53.621Z,7.00
2019-03-11T18:31:35.646Z,7.00
2019-03-11T18:34:17.601Z,7.00
2019-03-11T18:36:51.420Z,6.90
2019-03-11T18:39:33.443Z,6.90
2019-03-11T18:42:24.838Z,6.90
2019-03-11T18:44:59.006Z,6.90
2019-03-11T18:47:41.412Z,6.90
2019-03-11T18:50:23.406Z,6.80
2019-03-11T18:53:06.561Z,6.80
2019-03-11T18:55:49.633Z,6.90
2019-03-11T18:58:32.216Z,6.80
2019-03-11T19:03:51.366Z,6.90
2019-03-11T19:06:33.770Z,6.80
2019-03-11T19:09:16.019Z,6.80
2019-03-11T19:11:58.471Z,6.80
2019-03-11T19:14:42.069Z,6.70
2019-03-11T19:17:24.431Z,6.70
2019-03-11T19:20:06.718Z,6.70
2019-03-11T19:22:48.853Z,6.70
2019-03-11T19:25:19.143Z,6.70
2019-03-11T19:28:09.193Z,6.70
2019-03-11T19:30:52.994Z,6.70
2019-03-11T19:33:34.866Z,6.70
2019-03-11T19:36:17.153Z,6.60
2019-03-11T19:38:48.775Z,6.60
2019-03-11T19:41:31.072Z,6.60
2019-03-11T19:44:15.942Z,6.60
2019-03-11T19:46:58.429Z,6.60
2019-03-11T19:49:40.009Z,6.60
2019-03-11T19:52:21.870Z,6.50
2019-03-11T19:55:03.454Z,6.50
2019-03-11T19:57:46.456Z,6.50
2019-03-11T20:00:18.137Z,6.50
2019-03-11T20:03:07.815Z,6.50
2019-03-11T20:05:49.542Z,6.50
2019-03-11T20:08:31.944Z,6.40
2019-03-11T20:11:14.597Z,6.40
2019-03-11T20:13:58.890Z,6.40
2019-03-11T20:16:43.322Z,6.30
2019-03-11T20:19:28.168Z,6.30
2019-03-11T20:22:11.007Z,6.30
2019-03-11T20:27:37.480Z,6.40
2019-03-11T20:30:20.488Z,6.40
2019-03-11T20:33:05.285Z,6.30
2019-03-11T20:35:50.255Z,6.40
2019-03-11T20:38:37.668Z,6.30
2019-03-11T20:41:20.907Z,6.30
2019-03-11T20:44:04.936Z,6.30
2019-03-11T20:46:48.486Z,6.30
2019-03-11T20:49:32.029Z,6.30
2019-03-11T20:52:16.806Z,6.30
2019-03-11T20:55:00.721Z,6.30
2019-03-11T20:57:43.204Z,6.30
2019-03-11T21:00:25.786Z,6.30
2019-03-11T21:03:08.845Z,6.30
2019-03-11T21:05:51.715Z,6.30
2019-03-11T21:08:34.121Z,6.30
2019-03-11T21:11:16.472Z,6.30
2019-03-11T21:13:59.629Z,6.20
2019-03-11T21:16:42.393Z,6.20
2019-03-11T21:19:24.865Z,6.20
2019-03-11T21:22:09.336Z,6.30
2019-03-11T21:24:59.576Z,6.20
2019-03-11T21:27:35.995Z,6.10
2019-03-11T21:30:06.662Z,6.10
2019-03-11T21:32:48.741Z,6.10
2019-03-11T21:35:30.498Z,6.30
2019-03-11T21:38:12.531Z,6.20
2019-03-11T21:40:54.641Z,6.20
2019-03-11T21:43:36.559Z,6.20
2019-03-11T21:46:18.442Z,6.20
2019-03-11T21:49:00.410Z,6.20
2019-03-11T21:51:42.377Z,6.20
2019-03-11T21:54:24.647Z,6.10
